Portada
METAR-TAF:

METAR-TAF

Aeroports :

Souillac

Briva la Galharda, França

latitud: 45-02-28N, longitud: 001-28-59E, altitud: 311 m

Observació

L'informe es va fer fa 30 minuts, a les 21:00 UTC
Vent 5 kt del Nord/Nord-Est
Temperatura 20°C
Humitat 46%
Pressió 1020 hPa
Visibilitat 10 km o més
sense núvols per sota de 1500 mi sense presència de cumulonimbus.

METAR: LFSL 232100Z AUTO 03005KT CAVOK 20/08 Q1020

Hora: 23:30 (21:30 UTC)

Pronòstic

L'informe es va fer fa 7 hores i 30 minuts, a les 14:00 UTC
Pronòstic vàlid del 23 a les 15 UTC al 23 a les 24 UTC
Vent 10 kt del Nord-Est
Visibilitat 10 km o més
sense núvols per sota de 1500 mi sense presència de cumulonimbus.

TAF: LFSL 231400Z 2315/2324 04010KT CAVOK

Observacions i pronòstics meteorològics de més de 4000 aeroports (METAR i TAF).

Les estacions disponibles són els punts grocs i vermells al mapa.

Posi el ratolí al punt desitjat per veure el nom de l'estació.

Feu clic per veure les observacions i els pronòstics meteorològics.

Per canviar el mapa: feu clic els botons verds amb una creu de color negre per apropar; al botó verd amb un guió per allunyar la imatge; o en les fletxes verdes per a mapes adjacents.


METAR-TAF: